Gazpromneft Omsk — UBZU — position and weather

sailwx.info

Track history (hours):
 
Tides and Currents Weather Stations Pressure Air Temp Water Temp Dewpoint Dewpoint Depression Visibility Wind Speed Wind Dir Waves Ship Positions

Gazpromneft Omsk

Last reported at 2017-Dec-18 16:28 UTC. Time now 2017-Dec-18 16:46 UTC.
Position N 44°43' E 037°49'.

Length 100 m; draft 6.8 m.

Type: Tanker. MMSI: 273371330.

Date/timePositionNaut miles runAvg speedWind from/ knotsBaromVisibWave heightAir tempDewpointWater temp
2017-Dec-18 16:28N 44°43' E 037°49'0 0.0
2017-Dec-18 15:58N 44°43' E 037°49'0 0.0
2017-Dec-18 15:28N 44°43' E 037°49'0 0.0
2017-Dec-18 14:58N 44°43' E 037°49'0 0.0
2017-Dec-18 14:28N 44°43' E 037°49'0 0.0
2017-Dec-18 13:58N 44°43' E 037°49'0 0.0
2017-Dec-18 13:28N 44°43' E 037°49'0 0.2
2017-Dec-18 13:01N 44°43' E 037°49'1 2.3
2017-Dec-18 12:30N 44°44' E 037°48'0 0.7
2017-Dec-18 12:00N 44°44' E 037°47'0 0.0
2017-Dec-18 11:30N 44°44' E 037°47'0 0.0
2017-Dec-18 11:00N 44°44' E 037°47'0 0.0
2017-Dec-18 10:30N 44°44' E 037°47'0 0.0
2017-Dec-18 10:00N 44°44' E 037°47'0 0.0
2017-Dec-18 09:30N 44°44' E 037°47'0 0.0
2017-Dec-18 09:00N 44°44' E 037°47'0 0.0
2017-Dec-18 08:30N 44°44' E 037°47'0 0.0
2017-Dec-18 08:00N 44°44' E 037°47'0 0.0
2017-Dec-18 07:30N 44°44' E 037°47'0 0.0
2017-Dec-18 07:00N 44°44' E 037°47'0 0.0
2017-Dec-18 06:30N 44°44' E 037°47'0 0.0
2017-Dec-18 06:00N 44°44' E 037°47'0 0.0
2017-Dec-18 05:30N 44°44' E 037°47'0 0.0
2017-Dec-18 05:00N 44°44' E 037°47'0 0.0
2017-Dec-18 04:30N 44°44' E 037°47'0 0.0
2017-Dec-18 04:00N 44°44' E 037°47'0 0.0
2017-Dec-18 03:30N 44°44' E 037°47'0 0.0
2017-Dec-18 03:00N 44°44' E 037°47'0 0.0
2017-Dec-18 02:27N 44°44' E 037°47'0 0.0
2017-Dec-18 02:00N 44°44' E 037°47'0 0.0
2017-Dec-18 01:30N 44°44' E 037°47'0 0.0
2017-Dec-18 01:00N 44°44' E 037°47'0 0.0
2017-Dec-18 00:30N 44°44' E 037°47'0 0.0
2017-Dec-18 00:00N 44°44' E 037°47'0 0.0
2017-Dec-17 23:30N 44°44' E 037°47'0 0.0
2017-Dec-17 22:58N 44°44' E 037°47'0 0.0
2017-Dec-17 22:30N 44°44' E 037°47'0 0.7
2017-Dec-17 22:00N 44°43' E 037°48'2 4.5
2017-Dec-17 21:30N 44°41' E 037°49'0 0.2
2017-Dec-17 20:58N 44°42' E 037°49'0 0.0
2017-Dec-17 20:28N 44°42' E 037°49'0 0.0
2017-Dec-17 19:58N 44°42' E 037°49'0 0.0
2017-Dec-17 19:28N 44°42' E 037°49'0 0.0
2017-Dec-17 18:58N 44°42' E 037°49'0 0.0
2017-Dec-17 18:28N 44°42' E 037°49'0 0.0
2017-Dec-17 17:58N 44°42' E 037°49'0 0.0
2017-Dec-17 17:28N 44°42' E 037°49'0 0.0
2017-Dec-17 16:58N 44°42' E 037°49'0 0.0
2017-Dec-17 16:28N 44°42' E 037°49'0 0.0
2017-Dec-17 15:58N 44°42' E 037°49'0 0.0
2017-Dec-17 15:28N 44°42' E 037°49'0 0.0
2017-Dec-17 14:58N 44°42' E 037°49'0 0.0
2017-Dec-17 14:28N 44°42' E 037°49'0 0.0
2017-Dec-17 13:58N 44°42' E 037°49'0 0.0
2017-Dec-17 13:28N 44°42' E 037°49'0 0.0
2017-Dec-17 12:58N 44°42' E 037°49'0 0.0
2017-Dec-17 12:28N 44°42' E 037°49'0 0.0
2017-Dec-17 11:58N 44°42' E 037°49'0 0.0
2017-Dec-17 11:28N 44°42' E 037°49'0 0.2
2017-Dec-17 11:00N 44°41' E 037°49'3 5.2
2017-Dec-17 10:31N 44°39' E 037°51'4 7.8
2017-Dec-17 10:00N 44°36' E 037°54'0 0.3
2017-Dec-17 09:28N 44°36' E 037°54'0 0.1
2017-Dec-17 09:01N 44°36' E 037°54'1 1.1
2017-Dec-17 08:30N 44°37' E 037°54'4 7.8
2017-Dec-17 08:01N 44°40' E 037°50'4 7.2
2017-Dec-17 07:30N 44°43' E 037°49'0 0.0
2017-Dec-17 07:00N 44°43' E 037°49'0 0.0
2017-Dec-17 06:30N 44°43' E 037°49'0 0.0
2017-Dec-17 06:00N 44°43' E 037°49'0 0.0
2017-Dec-17 05:30N 44°43' E 037°49'0 0.0
2017-Dec-17 05:00N 44°43' E 037°49'0 0.0
2017-Dec-17 04:30N 44°43' E 037°49'0 0.0
2017-Dec-17 04:00N 44°43' E 037°49'0 0.0
2017-Dec-17 03:30N 44°43' E 037°49'0 0.0
2017-Dec-17 03:00N 44°43' E 037°49'0 0.0
2017-Dec-17 02:30N 44°43' E 037°49'0 0.0
2017-Dec-17 02:00N 44°43' E 037°49'0 0.0
2017-Dec-17 01:30N 44°43' E 037°49'0 0.0
2017-Dec-17 01:00N 44°43' E 037°49'0 0.0
2017-Dec-17 00:30N 44°43' E 037°49'0 0.0
2017-Dec-17 00:00N 44°43' E 037°49'0 0.0
2017-Dec-16 23:30N 44°43' E 037°49'0 0.0
2017-Dec-16 23:00N 44°43' E 037°49'0 0.0
2017-Dec-16 22:30N 44°43' E 037°49'0 0.0
2017-Dec-16 22:00N 44°43' E 037°49'0 0.0
2017-Dec-16 21:30N 44°43' E 037°49'0 0.0
2017-Dec-16 21:00N 44°43' E 037°49'0 0.0
2017-Dec-16 20:30N 44°43' E 037°49'0 0.0
2017-Dec-16 20:00N 44°43' E 037°49'0 0.0
2017-Dec-16 19:30N 44°43' E 037°49'0 0.0
2017-Dec-16 19:00N 44°43' E 037°49'0 0.0
2017-Dec-16 18:30N 44°43' E 037°49'0 0.0
2017-Dec-16 18:00N 44°43' E 037°49'0 0.0
2017-Dec-16 17:30N 44°43' E 037°49'0 0.0
2017-Dec-16 16:59N 44°43' E 037°49'0 0.0
2017-Dec-16 16:29N 44°43' E 037°49'0 0.0
2017-Dec-16 15:59N 44°43' E 037°49'0 0.0
2017-Dec-16 15:26N 44°43' E 037°49'0 0.0
2017-Dec-16 14:59N 44°43' E 037°49'0 0.0
2017-Dec-16 14:29N 44°43' E 037°49'0 0.0
2017-Dec-16 13:59N 44°43' E 037°49'0 0.0
2017-Dec-16 13:29N 44°43' E 037°49'0 0.0
2017-Dec-16 12:59N 44°43' E 037°49'0 0.0
2017-Dec-16 12:29N 44°43' E 037°49'0 0.0
2017-Dec-16 11:59N 44°43' E 037°49'0 0.0
2017-Dec-16 11:29N 44°43' E 037°49'0 0.0
2017-Dec-16 10:59N 44°43' E 037°49'0 0.0
2017-Dec-16 10:29N 44°43' E 037°49'0 0.2
2017-Dec-16 10:00N 44°43' E 037°49'2 3.4
2017-Dec-16 09:30N 44°42' E 037°50'1 2.9
2017-Dec-16 09:00N 44°43' E 037°49'0 0.7
2017-Dec-16 08:30N 44°43' E 037°49'0 0.0
2017-Dec-16 08:00N 44°43' E 037°49'0 0.0
2017-Dec-16 07:30N 44°43' E 037°49'0 0.0
2017-Dec-16 07:00N 44°43' E 037°49'0 0.0
2017-Dec-16 06:30N 44°43' E 037°49'0 0.0
2017-Dec-16 06:00N 44°43' E 037°49'0 0.0
2017-Dec-16 05:30N 44°43' E 037°49'0 0.0
2017-Dec-16 05:00N 44°43' E 037°49'0 0.0
2017-Dec-16 04:30N 44°43' E 037°49'0 0.0
2017-Dec-16 04:00N 44°43' E 037°49'0 0.0
2017-Dec-16 03:30N 44°43' E 037°49'0 0.0
2017-Dec-16 03:00N 44°43' E 037°49'0 0.0
2017-Dec-16 02:30N 44°43' E 037°49'0 0.0
2017-Dec-16 02:00N 44°43' E 037°49'0 0.0
2017-Dec-16 01:30N 44°43' E 037°49'0 0.0
2017-Dec-16 01:00N 44°43' E 037°49'0 0.0
2017-Dec-16 00:30N 44°43' E 037°49'0 0.0
2017-Dec-16 00:00N 44°43' E 037°49'0 0.0
2017-Dec-15 23:30N 44°43' E 037°49'0 0.0
2017-Dec-15 23:00N 44°43' E 037°49'0 0.0
2017-Dec-15 22:30N 44°43' E 037°49'0 0.0
2017-Dec-15 22:00N 44°43' E 037°49'0 0.0
2017-Dec-15 21:30N 44°43' E 037°49'0 0.0
2017-Dec-15 21:00N 44°43' E 037°49'0 0.0
2017-Dec-15 20:30N 44°43' E 037°49'0 0.0
2017-Dec-15 20:00N 44°43' E 037°49'0 0.0
2017-Dec-15 19:30N 44°43' E 037°49'0 0.0
2017-Dec-15 19:00N 44°43' E 037°49'0 0.0
2017-Dec-15 18:30N 44°43' E 037°49'0 0.0
2017-Dec-15 18:00N 44°43' E 037°49'0 0.0
2017-Dec-15 17:30N 44°43' E 037°49'0 0.0
2017-Dec-15 17:00N 44°43' E 037°49'0 0.0
2017-Dec-15 16:30N 44°43' E 037°49'0 0.0
2017-Dec-15 16:00N 44°43' E 037°49'0 0.0
2017-Dec-15 15:30N 44°43' E 037°49'0 0.0
2017-Dec-15 15:00N 44°43' E 037°49'0 0.0
2017-Dec-15 14:30N 44°43' E 037°49'0 0.0
2017-Dec-15 14:00N 44°43' E 037°49'0 0.0
2017-Dec-15 13:30N 44°43' E 037°49'0 0.0
2017-Dec-15 13:00N 44°43' E 037°49'0 0.0
2017-Dec-15 12:30N 44°43' E 037°49'0 0.0
2017-Dec-15 12:00N 44°43' E 037°49'0 0.0
2017-Dec-15 11:30N 44°43' E 037°49'0 0.0
2017-Dec-15 11:00N 44°43' E 037°49'0 0.0
2017-Dec-15 10:30N 44°43' E 037°49'0 0.0
2017-Dec-15 10:00N 44°43' E 037°49'0 0.0
2017-Dec-15 09:30N 44°43' E 037°49'0 0.0
2017-Dec-15 09:00N 44°43' E 037°49'0 0.0
2017-Dec-15 08:31N 44°43' E 037°49'0 0.8
2017-Dec-15 08:01N 44°43' E 037°49'3 6.3
2017-Dec-15 07:31N 44°40' E 037°50'4 8.3
2017-Dec-15 07:01N 44°37' E 037°54'2 3.6
2017-Dec-15 06:28N 44°35' E 037°56'0 0.0
2017-Dec-15 05:58N 44°35' E 037°56'0 0.0
2017-Dec-15 05:28N 44°36' E 037°56'0 0.0
2017-Dec-15 04:58N 44°36' E 037°56'0 0.0
2017-Dec-15 03:52N 44°36' E 037°56'0 0.0
2017-Dec-15 02:28N 44°35' E 037°56'0 0.0
2017-Dec-15 00:58N 44°35' E 037°56'0 0.0
2017-Dec-15 00:28N 44°35' E 037°56'2 0.3
2017-Dec-14 18:30N 44°36' E 037°54'0 0.1
2017-Dec-14 18:00N 44°36' E 037°54'0 0.1
2017-Dec-14 17:30N 44°36' E 037°54'0 0.0
2017-Dec-14 17:00N 44°36' E 037°54'0 0.1
2017-Dec-14 16:30N 44°36' E 037°54'0 0.1
2017-Dec-14 16:00N 44°36' E 037°54'0 0.1
2017-Dec-14 15:00N 44°36' E 037°54'0 0.1
2017-Dec-14 14:30N 44°36' E 037°54'0 0.0
2017-Dec-14 14:00N 44°36' E 037°54'0 0.0
2017-Dec-14 13:30N 44°36' E 037°54'0 0.0
2017-Dec-14 13:00N 44°36' E 037°54'0 0.0
2017-Dec-14 12:30N 44°36' E 037°54'0 0.0
2017-Dec-14 12:00N 44°36' E 037°54'0 0.0
2017-Dec-14 11:30N 44°36' E 037°54'0 0.0
2017-Dec-14 11:00N 44°36' E 037°54'0 0.0
2017-Dec-14 10:27N 44°36' E 037°54'0 0.1
2017-Dec-14 10:00N 44°36' E 037°54'0 0.5
2017-Dec-14 09:30N 44°36' E 037°54'1 1.9
2017-Dec-14 09:00N 44°35' E 037°53'0 0.1
2017-Dec-14 08:30N 44°35' E 037°53'0 0.0
2017-Dec-14 08:00N 44°35' E 037°53'0 0.1
2017-Dec-14 07:30N 44°35' E 037°53'0 0.0
2017-Dec-14 07:00N 44°35' E 037°53'0 0.0
2017-Dec-14 06:30N 44°35' E 037°53'0 0.0
2017-Dec-14 06:00N 44°35' E 037°53'0 0.0
2017-Dec-14 05:30N 44°35' E 037°53'0 0.0
2017-Dec-14 05:00N 44°35' E 037°53'0 0.0
2017-Dec-14 04:30N 44°35' E 037°53'0 0.0
2017-Dec-14 04:00N 44°35' E 037°53'0 0.1
2017-Dec-14 03:30N 44°35' E 037°53'0 0.9
2017-Dec-14 03:00N 44°35' E 037°53'3 6.6
2017-Dec-14 02:30N 44°38' E 037°51'3 6.5
2017-Dec-14 01:59N 44°41' E 037°49'0 0.1
2017-Dec-14 01:29N 44°41' E 037°49'0 0.0
2017-Dec-14 00:59N 44°41' E 037°49'0 0.0
2017-Dec-14 00:29N 44°41' E 037°49'0 0.0
2017-Dec-13 23:59N 44°41' E 037°49'0 0.1
2017-Dec-13 23:29N 44°41' E 037°49'0 0.0
2017-Dec-13 22:59N 44°41' E 037°49'0 0.0
2017-Dec-13 22:29N 44°41' E 037°49'0 0.0
2017-Dec-13 21:59N 44°41' E 037°49'0 0.0
2017-Dec-13 21:29N 44°41' E 037°49'0 0.0
2017-Dec-13 20:59N 44°41' E 037°49'0 0.0
2017-Dec-13 20:29N 44°41' E 037°49'0 0.0
2017-Dec-13 19:59N 44°41' E 037°49'0 0.0
2017-Dec-13 19:29N 44°41' E 037°49'0 0.0
2017-Dec-13 18:59N 44°41' E 037°49'0 0.9
2017-Dec-13 18:30N 44°42' E 037°49'2 3.2
2017-Dec-13 18:00N 44°43' E 037°49'0 0.0
2017-Dec-13 17:29N 44°43' E 037°49'0 0.0
2017-Dec-13 16:59N 44°43' E 037°49'0 0.0
2017-Dec-13 16:29N 44°43' E 037°49'0 0.0
2017-Dec-13 15:59N 44°43' E 037°49'0 0.0
2017-Dec-13 15:29N 44°43' E 037°49'0 0.0
2017-Dec-13 14:59N 44°43' E 037°49'0 0.0
2017-Dec-13 14:29N 44°43' E 037°49'0 0.0
2017-Dec-13 13:59N 44°43' E 037°49'0 0.0
2017-Dec-13 13:26N 44°43' E 037°49'0 0.0
2017-Dec-13 12:59N 44°43' E 037°49'0 0.0
2017-Dec-13 12:29N 44°43' E 037°49'0 0.0
2017-Dec-13 11:59N 44°43' E 037°49'0 0.0
2017-Dec-13 11:29N 44°43' E 037°49'0 0.0
2017-Dec-13 10:59N 44°43' E 037°49'0 0.0
2017-Dec-13 10:29N 44°43' E 037°49'0 0.0
2017-Dec-13 09:59N 44°43' E 037°49'0 0.0
2017-Dec-13 09:29N 44°43' E 037°49'0 0.0
2017-Dec-13 08:59N 44°43' E 037°49'0 0.0
2017-Dec-13 08:29N 44°43' E 037°49'0 0.0
2017-Dec-13 07:59N 44°43' E 037°49'0 0.0
2017-Dec-13 07:29N 44°43' E 037°49'0 0.0
2017-Dec-13 06:59N 44°43' E 037°49'0 0.0
2017-Dec-13 06:29N 44°43' E 037°49'0 0.0
2017-Dec-13 05:59N 44°43' E 037°49'0 0.0
2017-Dec-13 05:29N 44°43' E 037°49'0 0.0
2017-Dec-13 04:59N 44°43' E 037°49'0 0.0
2017-Dec-13 04:29N 44°43' E 037°49'0 0.0
2017-Dec-13 03:59N 44°43' E 037°49'0 0.0
2017-Dec-13 03:29N 44°43' E 037°49'0 0.0
2017-Dec-13 02:59N 44°43' E 037°49'0 0.0
2017-Dec-13 02:29N 44°43' E 037°49'0 0.0
2017-Dec-13 01:59N 44°43' E 037°49'0 0.0
2017-Dec-13 01:29N 44°43' E 037°49'0 0.0
2017-Dec-13 00:56N 44°43' E 037°49'0 0.0
2017-Dec-13 00:29N 44°43' E 037°49'0 0.0
2017-Dec-12 23:59N 44°43' E 037°49'0 0.0
2017-Dec-12 23:29N 44°43' E 037°49'0 0.0
2017-Dec-12 22:59N 44°43' E 037°49'0 0.0
2017-Dec-12 22:29N 44°43' E 037°49'0 0.0
2017-Dec-12 21:59N 44°43' E 037°49'0 0.0
2017-Dec-12 21:29N 44°43' E 037°49'0 0.0
2017-Dec-12 20:59N 44°43' E 037°49'0 0.0
2017-Dec-12 20:29N 44°43' E 037°49'0 0.0
2017-Dec-12 19:59N 44°43' E 037°49'0 0.0
2017-Dec-12 19:29N 44°43' E 037°49'0 0.0
2017-Dec-12 18:59N 44°43' E 037°49'0 0.0
2017-Dec-12 18:29N 44°43' E 037°49'0 0.0
2017-Dec-12 17:59N 44°43' E 037°49'0 0.0
2017-Dec-12 17:29N 44°43' E 037°49'0 0.0
2017-Dec-12 16:59N 44°43' E 037°49'0 0.0
2017-Dec-12 16:29N 44°43' E 037°49'0 0.0
2017-Dec-12 15:59N 44°43' E 037°49'0 0.0
2017-Dec-12 15:29N 44°43' E 037°49'0 0.0
2017-Dec-12 14:59N 44°43' E 037°49'0 0.0
2017-Dec-12 14:29N 44°43' E 037°49'0 0.0
2017-Dec-12 13:59N 44°43' E 037°49'0 0.0
2017-Dec-12 13:29N 44°43' E 037°49'0 0.0
2017-Dec-12 12:59N 44°43' E 037°49'0 0.0
2017-Dec-12 12:29N 44°43' E 037°49'0 0.0
2017-Dec-12 11:59N 44°43' E 037°49'0 0.0
2017-Dec-12 11:29N 44°43' E 037°49'0 0.0
2017-Dec-12 10:59N 44°43' E 037°49'0 0.0
2017-Dec-12 10:29N 44°43' E 037°49'0 0.0
2017-Dec-12 09:59N 44°43' E 037°49'0 0.0
2017-Dec-12 09:29N 44°43' E 037°49'0 0.0
2017-Dec-12 08:59N 44°43' E 037°49'0 0.0
2017-Dec-12 08:29N 44°43' E 037°49'0 0.0
2017-Dec-12 07:59N 44°43' E 037°49'0 0.0
2017-Dec-12 07:29N 44°43' E 037°49'0 0.0
2017-Dec-12 06:59N 44°43' E 037°49'0 0.0
2017-Dec-12 06:29N 44°43' E 037°49'0 0.0
2017-Dec-12 05:59N 44°43' E 037°49'0 0.0
2017-Dec-12 05:29N 44°43' E 037°49'0 0.0
2017-Dec-12 04:59N 44°43' E 037°49'0 0.0
2017-Dec-12 04:29N 44°43' E 037°49'0 0.0
2017-Dec-12 03:59N 44°43' E 037°49'0 0.0
2017-Dec-12 03:29N 44°43' E 037°49'0 0.0
2017-Dec-12 02:59N 44°43' E 037°49'0 0.0
2017-Dec-12 02:29N 44°43' E 037°49'0 0.0
2017-Dec-12 01:59N 44°43' E 037°49'0 0.0
2017-Dec-12 01:29N 44°43' E 037°49'0 0.0
2017-Dec-12 00:59N 44°43' E 037°49'0 0.0
2017-Dec-12 00:29N 44°43' E 037°49'0 0.0
2017-Dec-11 23:59N 44°43' E 037°49'0 0.0
2017-Dec-11 23:29N 44°43' E 037°49'0 0.0
2017-Dec-11 22:59N 44°43' E 037°49'0 0.0
2017-Dec-11 22:29N 44°43' E 037°49'0 0.0
2017-Dec-11 21:59N 44°43' E 037°49'0 0.0
2017-Dec-11 21:29N 44°43' E 037°49'0 0.0
2017-Dec-11 20:59N 44°43' E 037°49'0 0.0
2017-Dec-11 20:29N 44°43' E 037°49'0 0.0
2017-Dec-11 19:59N 44°43' E 037°49'0 0.0
2017-Dec-11 19:29N 44°43' E 037°49'0 0.0
2017-Dec-11 18:59N 44°43' E 037°49'0 0.0
2017-Dec-11 18:29N 44°43' E 037°49'0 0.0
2017-Dec-11 17:59N 44°43' E 037°49'0 0.0
2017-Dec-11 17:29N 44°43' E 037°49'0 0.0
2017-Dec-11 16:59N 44°43' E 037°49'0 0.0
2017-Dec-11 16:29N 44°43' E 037°49'0 0.0
2017-Dec-11 15:59N 44°43' E 037°49'0 0.0
2017-Dec-11 15:29N 44°43' E 037°49'0 0.0
2017-Dec-11 14:59N 44°43' E 037°49'0 0.0
2017-Dec-11 14:29N 44°43' E 037°49'0 0.0
2017-Dec-11 13:59N 44°43' E 037°49'0 0.0
2017-Dec-11 13:29N 44°43' E 037°49'0 0.0
2017-Dec-11 12:59N 44°43' E 037°49'0 0.0
2017-Dec-11 12:29N 44°43' E 037°49'0 0.0
2017-Dec-11 11:59N 44°43' E 037°49'0 0.0
2017-Dec-11 11:29N 44°43' E 037°49'0 0.0
2017-Dec-11 10:59N 44°43' E 037°49'0 0.0
2017-Dec-11 10:29N 44°43' E 037°49'0 0.0
2017-Dec-11 09:59N 44°43' E 037°49'0 0.0
2017-Dec-11 09:29N 44°43' E 037°49'0 0.0
2017-Dec-11 08:59N 44°43' E 037°49'0 0.0
2017-Dec-11 08:29N 44°43' E 037°49'0 0.0
2017-Dec-11 07:59N 44°43' E 037°49'0 0.0
2017-Dec-11 07:29N 44°43' E 037°49'0 0.0
2017-Dec-11 06:59N 44°43' E 037°49'0 0.0
2017-Dec-11 06:29N 44°43' E 037°49'0 0.0
2017-Dec-11 05:59N 44°43' E 037°49'0 0.0
2017-Dec-11 05:29N 44°43' E 037°49'0 0.0
2017-Dec-11 04:59N 44°43' E 037°49'0 0.0
2017-Dec-11 04:29N 44°43' E 037°49'0 0.0
2017-Dec-11 03:59N 44°43' E 037°49'0 0.0
2017-Dec-11 03:29N 44°43' E 037°49'0 0.0
2017-Dec-11 02:59N 44°43' E 037°49'0 0.0
2017-Dec-11 02:29N 44°43' E 037°49'0 0.0
2017-Dec-11 01:59N 44°43' E 037°49'0 0.0
2017-Dec-11 01:29N 44°43' E 037°49'0 0.0
2017-Dec-11 00:59N 44°43' E 037°49'0 0.0
2017-Dec-11 00:29N 44°43' E 037°49'0 0.0
2017-Dec-10 23:59N 44°43' E 037°49'0 0.0
2017-Dec-10 23:29N 44°43' E 037°49'0 0.0
2017-Dec-10 22:59N 44°43' E 037°49'0 0.0
2017-Dec-10 22:29N 44°43' E 037°49'0 0.0
2017-Dec-10 21:59N 44°43' E 037°49'0 0.0
2017-Dec-10 21:29N 44°43' E 037°49'0 0.0
2017-Dec-10 20:59N 44°43' E 037°49'0 0.0
2017-Dec-10 20:11N 44°43' E 037°49'0 0.0
2017-Dec-10 19:59N 44°43' E 037°49'0 0.0
2017-Dec-10 19:29N 44°43' E 037°49'0 0.0
2017-Dec-10 18:59N 44°43' E 037°49'0 0.0
2017-Dec-10 18:29N 44°43' E 037°49'0 0.0
2017-Dec-10 17:59N 44°43' E 037°49'0 0.0
2017-Dec-10 17:29N 44°43' E 037°49'0 0.0
2017-Dec-10 16:59N 44°43' E 037°49'0 0.0
2017-Dec-10 16:29N 44°43' E 037°49'0 0.0
2017-Dec-10 15:59N 44°43' E 037°49'0 0.0
2017-Dec-10 15:29N 44°43' E 037°49'0 0.0
2017-Dec-10 14:59N 44°43' E 037°49'0 0.0
2017-Dec-10 14:29N 44°43' E 037°49'0 0.0
2017-Dec-10 13:59N 44°43' E 037°49'0 0.0
2017-Dec-10 13:29N 44°43' E 037°49'0 0.0
2017-Dec-10 12:59N 44°43' E 037°49'0 0.0
2017-Dec-10 12:29N 44°43' E 037°49'0 0.0
2017-Dec-10 11:59N 44°43' E 037°49'0 0.0
2017-Dec-10 11:29N 44°43' E 037°49'0 0.0
2017-Dec-10 10:59N 44°43' E 037°49'0 0.0
2017-Dec-10 10:29N 44°43' E 037°49'0 0.0
2017-Dec-10 09:59N 44°43' E 037°49'0 0.0
2017-Dec-10 09:29N 44°43' E 037°49'0 0.0
2017-Dec-10 08:59N 44°43' E 037°49'0 0.0
2017-Dec-10 08:29N 44°43' E 037°49'0 0.0
2017-Dec-10 07:59N 44°43' E 037°49'0 0.0
2017-Dec-10 07:29N 44°43' E 037°49'0 0.0
2017-Dec-10 06:56N 44°43' E 037°49'0 0.0
2017-Dec-10 06:29N 44°43' E 037°49'0 0.0
2017-Dec-10 05:59N 44°43' E 037°49'0 0.0
2017-Dec-10 05:29N 44°43' E 037°49'0 0.0
2017-Dec-10 04:59N 44°43' E 037°49'0 0.0
2017-Dec-10 04:29N 44°43' E 037°49'0 0.0
2017-Dec-10 03:59N 44°43' E 037°49'0 0.0
2017-Dec-10 03:29N 44°43' E 037°49'0 0.0
2017-Dec-10 02:59N 44°43' E 037°49'0 0.0
2017-Dec-10 02:29N 44°43' E 037°49'0 0.0
2017-Dec-10 01:59N 44°43' E 037°49'0 0.0
2017-Dec-10 01:29N 44°43' E 037°49'0 0.0
2017-Dec-10 00:59N 44°43' E 037°49'0 0.0
2017-Dec-10 00:29N 44°43' E 037°49'0 0.0
2017-Dec-09 23:59N 44°43' E 037°49'0 0.0
2017-Dec-09 23:29N 44°43' E 037°49'0 0.0
2017-Dec-09 22:59N 44°43' E 037°49'0 0.0
2017-Dec-09 22:29N 44°43' E 037°49'0 0.0
2017-Dec-09 21:23N 44°43' E 037°49'0 0.0
2017-Dec-09 20:59N 44°43' E 037°49'0 0.0
2017-Dec-09 20:29N 44°43' E 037°49'0 0.0
2017-Dec-09 19:59N 44°43' E 037°49'0 0.0
2017-Dec-09 19:28N 44°43' E 037°49'0 0.0
2017-Dec-09 18:58N 44°43' E 037°49'0 0.0
2017-Dec-09 18:28N 44°43' E 037°49'0 0.0
2017-Dec-09 17:58N 44°43' E 037°49'0 0.0
2017-Dec-09 17:28N 44°43' E 037°49'0 0.0
2017-Dec-09 16:58N 44°43' E 037°49'0 0.0
2017-Dec-09 16:28N 44°43' E 037°49'0 0.0
2017-Dec-09 15:58N 44°43' E 037°49'0 0.0
2017-Dec-09 15:28N 44°43' E 037°49'0 0.0
2017-Dec-09 14:58N 44°43' E 037°49'0 0.0
2017-Dec-09 14:28N 44°43' E 037°49'0 0.0
2017-Dec-09 13:58N 44°43' E 037°49'0 0.0
2017-Dec-09 13:25N 44°43' E 037°49'0 0.0
2017-Dec-09 12:58N 44°43' E 037°49'0 0.0
2017-Dec-09 12:28N 44°43' E 037°49'0 0.0
2017-Dec-09 11:58N 44°43' E 037°49'0 0.0
2017-Dec-09 11:28N 44°43' E 037°49'0 0.0
2017-Dec-09 10:58N 44°43' E 037°49'0 0.0
2017-Dec-09 10:28N 44°43' E 037°49'0 0.0
2017-Dec-09 09:58N 44°43' E 037°49'0 0.0
2017-Dec-09 09:28N 44°43' E 037°49'0 0.0
2017-Dec-09 08:58N 44°43' E 037°49'0 0.0
2017-Dec-09 08:28N 44°43' E 037°49'0 0.0
2017-Dec-09 07:58N 44°43' E 037°49'0 0.0
2017-Dec-09 07:28N 44°43' E 037°49'0 0.0
2017-Dec-09 06:58N 44°43' E 037°49'0 0.0
2017-Dec-09 06:28N 44°43' E 037°49'0 0.0
2017-Dec-09 05:58N 44°43' E 037°49'0 0.0
2017-Dec-09 05:28N 44°43' E 037°49'0 0.0
2017-Dec-09 04:58N 44°43' E 037°49'0 0.0
2017-Dec-09 04:28N 44°43' E 037°49'0 0.0
2017-Dec-09 03:58N 44°43' E 037°49'0 0.0
2017-Dec-09 03:28N 44°43' E 037°49'0 0.0
2017-Dec-09 02:58N 44°43' E 037°49'0 0.0
2017-Dec-09 02:25N 44°43' E 037°49'0 0.0
2017-Dec-09 01:58N 44°43' E 037°49'0 0.0
2017-Dec-09 01:28N 44°43' E 037°49'0 0.0
2017-Dec-09 00:58N 44°43' E 037°49'0 0.0
2017-Dec-09 00:28N 44°43' E 037°49'0 0.0
2017-Dec-08 23:58N 44°43' E 037°49'0 0.0
2017-Dec-08 23:28N 44°43' E 037°49'0 0.0
2017-Dec-08 22:58N 44°43' E 037°49'0 0.0
2017-Dec-08 22:28N 44°43' E 037°49'0 0.0
2017-Dec-08 21:58N 44°43' E 037°49'0 0.0
2017-Dec-08 21:28N 44°43' E 037°49'0 0.0
2017-Dec-08 20:58N 44°43' E 037°49'0 0.0
2017-Dec-08 20:28N 44°43' E 037°49'0 0.0
2017-Dec-08 19:58N 44°43' E 037°49'0 0.0
2017-Dec-08 19:28N 44°43' E 037°49'0 0.0
2017-Dec-08 18:58N 44°43' E 037°49'0 0.0
2017-Dec-08 18:28N 44°43' E 037°49'0 0.0
2017-Dec-08 17:58N 44°43' E 037°49'0 0.0
2017-Dec-08 17:28N 44°43' E 037°49'0 0.0
2017-Dec-08 16:52N 44°43' E 037°49'  
Track history (hours):
 
Tides and Currents Weather Stations Pressure Air Temp Water Temp Dewpoint Dewpoint Depression Visibility Wind Speed Wind Dir Waves Ship Positions

Gazpromneft Omsk

Last reported at 2017-Dec-18 16:28 UTC. Time now 2017-Dec-18 16:46 UTC.
Position N 44°43' E 037°49'.

Length 100 m; draft 6.8 m.

Type: Tanker. MMSI: 273371330.

Date/timePositionNaut miles runAvg speedWind from/ knotsBaromVisibWave heightAir tempDewpointWater temp
2017-Dec-18 16:28N 44°43' E 037°49'0 0.0
2017-Dec-18 15:58N 44°43' E 037°49'0 0.0
2017-Dec-18 15:28N 44°43' E 037°49'0 0.0
2017-Dec-18 14:58N 44°43' E 037°49'0 0.0
2017-Dec-18 14:28N 44°43' E 037°49'0 0.0
2017-Dec-18 13:58N 44°43' E 037°49'0 0.0
2017-Dec-18 13:28N 44°43' E 037°49'0 0.2
2017-Dec-18 13:01N 44°43' E 037°49'1 2.3
2017-Dec-18 12:30N 44°44' E 037°48'0 0.7
2017-Dec-18 12:00N 44°44' E 037°47'0 0.0
2017-Dec-18 11:30N 44°44' E 037°47'0 0.0
2017-Dec-18 11:00N 44°44' E 037°47'0 0.0
2017-Dec-18 10:30N 44°44' E 037°47'0 0.0
2017-Dec-18 10:00N 44°44' E 037°47'0 0.0
2017-Dec-18 09:30N 44°44' E 037°47'0 0.0
2017-Dec-18 09:00N 44°44' E 037°47'0 0.0
2017-Dec-18 08:30N 44°44' E 037°47'0 0.0
2017-Dec-18 08:00N 44°44' E 037°47'0 0.0
2017-Dec-18 07:30N 44°44' E 037°47'0 0.0
2017-Dec-18 07:00N 44°44' E 037°47'0 0.0
2017-Dec-18 06:30N 44°44' E 037°47'0 0.0
2017-Dec-18 06:00N 44°44' E 037°47'0 0.0
2017-Dec-18 05:30N 44°44' E 037°47'0 0.0
2017-Dec-18 05:00N 44°44' E 037°47'0 0.0
2017-Dec-18 04:30N 44°44' E 037°47'0 0.0
2017-Dec-18 04:00N 44°44' E 037°47'0 0.0
2017-Dec-18 03:30N 44°44' E 037°47'0 0.0
2017-Dec-18 03:00N 44°44' E 037°47'0 0.0
2017-Dec-18 02:27N 44°44' E 037°47'0 0.0
2017-Dec-18 02:00N 44°44' E 037°47'0 0.0
2017-Dec-18 01:30N 44°44' E 037°47'0 0.0
2017-Dec-18 01:00N 44°44' E 037°47'0 0.0
2017-Dec-18 00:30N 44°44' E 037°47'0 0.0
2017-Dec-18 00:00N 44°44' E 037°47'0 0.0
2017-Dec-17 23:30N 44°44' E 037°47'0 0.0
2017-Dec-17 22:58N 44°44' E 037°47'0 0.0
2017-Dec-17 22:30N 44°44' E 037°47'0 0.7
2017-Dec-17 22:00N 44°43' E 037°48'2 4.5
2017-Dec-17 21:30N 44°41' E 037°49'0 0.2
2017-Dec-17 20:58N 44°42' E 037°49'0 0.0
2017-Dec-17 20:28N 44°42' E 037°49'0 0.0
2017-Dec-17 19:58N 44°42' E 037°49'0 0.0
2017-Dec-17 19:28N 44°42' E 037°49'0 0.0
2017-Dec-17 18:58N 44°42' E 037°49'0 0.0
2017-Dec-17 18:28N 44°42' E 037°49'0 0.0
2017-Dec-17 17:58N 44°42' E 037°49'0 0.0
2017-Dec-17 17:28N 44°42' E 037°49'0 0.0
2017-Dec-17 16:58N 44°42' E 037°49'0 0.0
2017-Dec-17 16:28N 44°42' E 037°49'0 0.0
2017-Dec-17 15:58N 44°42' E 037°49'0 0.0
2017-Dec-17 15:28N 44°42' E 037°49'0 0.0
2017-Dec-17 14:58N 44°42' E 037°49'0 0.0
2017-Dec-17 14:28N 44°42' E 037°49'0 0.0
2017-Dec-17 13:58N 44°42' E 037°49'0 0.0
2017-Dec-17 13:28N 44°42' E 037°49'0 0.0
2017-Dec-17 12:58N 44°42' E 037°49'0 0.0
2017-Dec-17 12:28N 44°42' E 037°49'0 0.0
2017-Dec-17 11:58N 44°42' E 037°49'0 0.0
2017-Dec-17 11:28N 44°42' E 037°49'0 0.2
2017-Dec-17 11:00N 44°41' E 037°49'3 5.2
2017-Dec-17 10:31N 44°39' E 037°51'4 7.8
2017-Dec-17 10:00N 44°36' E 037°54'0 0.3
2017-Dec-17 09:28N 44°36' E 037°54'0 0.1
2017-Dec-17 09:01N 44°36' E 037°54'1 1.1
2017-Dec-17 08:30N 44°37' E 037°54'4 7.8
2017-Dec-17 08:01N 44°40' E 037°50'4 7.2
2017-Dec-17 07:30N 44°43' E 037°49'0 0.0
2017-Dec-17 07:00N 44°43' E 037°49'0 0.0
2017-Dec-17 06:30N 44°43' E 037°49'0 0.0
2017-Dec-17 06:00N 44°43' E 037°49'0 0.0
2017-Dec-17 05:30N 44°43' E 037°49'0 0.0
2017-Dec-17 05:00N 44°43' E 037°49'0 0.0
2017-Dec-17 04:30N 44°43' E 037°49'0 0.0
2017-Dec-17 04:00N 44°43' E 037°49'0 0.0
2017-Dec-17 03:30N 44°43' E 037°49'0 0.0
2017-Dec-17 03:00N 44°43' E 037°49'0 0.0
2017-Dec-17 02:30N 44°43' E 037°49'0 0.0
2017-Dec-17 02:00N 44°43' E 037°49'0 0.0
2017-Dec-17 01:30N 44°43' E 037°49'0 0.0
2017-Dec-17 01:00N 44°43' E 037°49'0 0.0
2017-Dec-17 00:30N 44°43' E 037°49'0 0.0
2017-Dec-17 00:00N 44°43' E 037°49'0 0.0
2017-Dec-16 23:30N 44°43' E 037°49'0 0.0
2017-Dec-16 23:00N 44°43' E 037°49'0 0.0
2017-Dec-16 22:30N 44°43' E 037°49'0 0.0
2017-Dec-16 22:00N 44°43' E 037°49'0 0.0
2017-Dec-16 21:30N 44°43' E 037°49'0 0.0
2017-Dec-16 21:00N 44°43' E 037°49'0 0.0
2017-Dec-16 20:30N 44°43' E 037°49'0 0.0
2017-Dec-16 20:00N 44°43' E 037°49'0 0.0
2017-Dec-16 19:30N 44°43' E 037°49'0 0.0
2017-Dec-16 19:00N 44°43' E 037°49'0 0.0
2017-Dec-16 18:30N 44°43' E 037°49'0 0.0
2017-Dec-16 18:00N 44°43' E 037°49'0 0.0
2017-Dec-16 17:30N 44°43' E 037°49'0 0.0
2017-Dec-16 16:59N 44°43' E 037°49'0 0.0
2017-Dec-16 16:29N 44°43' E 037°49'0 0.0
2017-Dec-16 15:59N 44°43' E 037°49'0 0.0
2017-Dec-16 15:26N 44°43' E 037°49'0 0.0
2017-Dec-16 14:59N 44°43' E 037°49'0 0.0
2017-Dec-16 14:29N 44°43' E 037°49'0 0.0
2017-Dec-16 13:59N 44°43' E 037°49'0 0.0
2017-Dec-16 13:29N 44°43' E 037°49'0 0.0
2017-Dec-16 12:59N 44°43' E 037°49'0 0.0
2017-Dec-16 12:29N 44°43' E 037°49'0 0.0
2017-Dec-16 11:59N 44°43' E 037°49'0 0.0
2017-Dec-16 11:29N 44°43' E 037°49'0 0.0
2017-Dec-16 10:59N 44°43' E 037°49'0 0.0
2017-Dec-16 10:29N 44°43' E 037°49'0 0.2
2017-Dec-16 10:00N 44°43' E 037°49'2 3.4
2017-Dec-16 09:30N 44°42' E 037°50'1 2.9
2017-Dec-16 09:00N 44°43' E 037°49'0 0.7
2017-Dec-16 08:30N 44°43' E 037°49'0 0.0
2017-Dec-16 08:00N 44°43' E 037°49'0 0.0
2017-Dec-16 07:30N 44°43' E 037°49'0 0.0
2017-Dec-16 07:00N 44°43' E 037°49'0 0.0
2017-Dec-16 06:30N 44°43' E 037°49'0 0.0
2017-Dec-16 06:00N 44°43' E 037°49'0 0.0
2017-Dec-16 05:30N 44°43' E 037°49'0 0.0
2017-Dec-16 05:00N 44°43' E 037°49'0 0.0
2017-Dec-16 04:30N 44°43' E 037°49'0 0.0
2017-Dec-16 04:00N 44°43' E 037°49'0 0.0
2017-Dec-16 03:30N 44°43' E 037°49'0 0.0
2017-Dec-16 03:00N 44°43' E 037°49'0 0.0
2017-Dec-16 02:30N 44°43' E 037°49'0 0.0
2017-Dec-16 02:00N 44°43' E 037°49'0 0.0
2017-Dec-16 01:30N 44°43' E 037°49'0 0.0
2017-Dec-16 01:00N 44°43' E 037°49'0 0.0
2017-Dec-16 00:30N 44°43' E 037°49'0 0.0
2017-Dec-16 00:00N 44°43' E 037°49'0 0.0
2017-Dec-15 23:30N 44°43' E 037°49'0 0.0
2017-Dec-15 23:00N 44°43' E 037°49'0 0.0
2017-Dec-15 22:30N 44°43' E 037°49'0 0.0
2017-Dec-15 22:00N 44°43' E 037°49'0 0.0
2017-Dec-15 21:30N 44°43' E 037°49'0 0.0
2017-Dec-15 21:00N 44°43' E 037°49'0 0.0
2017-Dec-15 20:30N 44°43' E 037°49'0 0.0
2017-Dec-15 20:00N 44°43' E 037°49'0 0.0
2017-Dec-15 19:30N 44°43' E 037°49'0 0.0
2017-Dec-15 19:00N 44°43' E 037°49'0 0.0
2017-Dec-15 18:30N 44°43' E 037°49'0 0.0
2017-Dec-15 18:00N 44°43' E 037°49'0 0.0
2017-Dec-15 17:30N 44°43' E 037°49'0 0.0
2017-Dec-15 17:00N 44°43' E 037°49'0 0.0
2017-Dec-15 16:30N 44°43' E 037°49'0 0.0
2017-Dec-15 16:00N 44°43' E 037°49'0 0.0
2017-Dec-15 15:30N 44°43' E 037°49'0 0.0
2017-Dec-15 15:00N 44°43' E 037°49'0 0.0
2017-Dec-15 14:30N 44°43' E 037°49'0 0.0
2017-Dec-15 14:00N 44°43' E 037°49'0 0.0
2017-Dec-15 13:30N 44°43' E 037°49'0 0.0
2017-Dec-15 13:00N 44°43' E 037°49'0 0.0
2017-Dec-15 12:30N 44°43' E 037°49'0 0.0
2017-Dec-15 12:00N 44°43' E 037°49'0 0.0
2017-Dec-15 11:30N 44°43' E 037°49'0 0.0
2017-Dec-15 11:00N 44°43' E 037°49'0 0.0
2017-Dec-15 10:30N 44°43' E 037°49'0 0.0
2017-Dec-15 10:00N 44°43' E 037°49'0 0.0
2017-Dec-15 09:30N 44°43' E 037°49'0 0.0
2017-Dec-15 09:00N 44°43' E 037°49'0 0.0
2017-Dec-15 08:31N 44°43' E 037°49'0 0.8
2017-Dec-15 08:01N 44°43' E 037°49'3 6.3
2017-Dec-15 07:31N 44°40' E 037°50'4 8.3
2017-Dec-15 07:01N 44°37' E 037°54'2 3.6
2017-Dec-15 06:28N 44°35' E 037°56'0 0.0
2017-Dec-15 05:58N 44°35' E 037°56'0 0.0
2017-Dec-15 05:28N 44°36' E 037°56'0 0.0
2017-Dec-15 04:58N 44°36' E 037°56'0 0.0
2017-Dec-15 03:52N 44°36' E 037°56'0 0.0
2017-Dec-15 02:28N 44°35' E 037°56'0 0.0
2017-Dec-15 00:58N 44°35' E 037°56'0 0.0
2017-Dec-15 00:28N 44°35' E 037°56'2 0.3
2017-Dec-14 18:30N 44°36' E 037°54'0 0.1
2017-Dec-14 18:00N 44°36' E 037°54'0 0.1
2017-Dec-14 17:30N 44°36' E 037°54'0 0.0
2017-Dec-14 17:00N 44°36' E 037°54'0 0.1
2017-Dec-14 16:30N 44°36' E 037°54'0 0.1
2017-Dec-14 16:00N 44°36' E 037°54'0 0.1
2017-Dec-14 15:00N 44°36' E 037°54'0 0.1
2017-Dec-14 14:30N 44°36' E 037°54'0 0.0
2017-Dec-14 14:00N 44°36' E 037°54'0 0.0
2017-Dec-14 13:30N 44°36' E 037°54'0 0.0
2017-Dec-14 13:00N 44°36' E 037°54'0 0.0
2017-Dec-14 12:30N 44°36' E 037°54'0 0.0
2017-Dec-14 12:00N 44°36' E 037°54'0 0.0
2017-Dec-14 11:30N 44°36' E 037°54'0 0.0
2017-Dec-14 11:00N 44°36' E 037°54'0 0.0
2017-Dec-14 10:27N 44°36' E 037°54'0 0.1
2017-Dec-14 10:00N 44°36' E 037°54'0 0.5
2017-Dec-14 09:30N 44°36' E 037°54'1 1.9
2017-Dec-14 09:00N 44°35' E 037°53'0 0.1
2017-Dec-14 08:30N 44°35' E 037°53'0 0.0
2017-Dec-14 08:00N 44°35' E 037°53'0 0.1
2017-Dec-14 07:30N 44°35' E 037°53'0 0.0
2017-Dec-14 07:00N 44°35' E 037°53'0 0.0
2017-Dec-14 06:30N 44°35' E 037°53'0 0.0
2017-Dec-14 06:00N 44°35' E 037°53'0 0.0
2017-Dec-14 05:30N 44°35' E 037°53'0 0.0
2017-Dec-14 05:00N 44°35' E 037°53'0 0.0
2017-Dec-14 04:30N 44°35' E 037°53'0 0.0
2017-Dec-14 04:00N 44°35' E 037°53'0 0.1
2017-Dec-14 03:30N 44°35' E 037°53'0 0.9
2017-Dec-14 03:00N 44°35' E 037°53'3 6.6
2017-Dec-14 02:30N 44°38' E 037°51'3 6.5
2017-Dec-14 01:59N 44°41' E 037°49'0 0.1
2017-Dec-14 01:29N 44°41' E 037°49'0 0.0
2017-Dec-14 00:59N 44°41' E 037°49'0 0.0
2017-Dec-14 00:29N 44°41' E 037°49'0 0.0
2017-Dec-13 23:59N 44°41' E 037°49'0 0.1
2017-Dec-13 23:29N 44°41' E 037°49'0 0.0
2017-Dec-13 22:59N 44°41' E 037°49'0 0.0
2017-Dec-13 22:29N 44°41' E 037°49'0 0.0
2017-Dec-13 21:59N 44°41' E 037°49'0 0.0
2017-Dec-13 21:29N 44°41' E 037°49'0 0.0
2017-Dec-13 20:59N 44°41' E 037°49'0 0.0
2017-Dec-13 20:29N 44°41' E 037°49'0 0.0
2017-Dec-13 19:59N 44°41' E 037°49'0 0.0
2017-Dec-13 19:29N 44°41' E 037°49'0 0.0
2017-Dec-13 18:59N 44°41' E 037°49'0 0.9
2017-Dec-13 18:30N 44°42' E 037°49'2 3.2
2017-Dec-13 18:00N 44°43' E 037°49'0 0.0
2017-Dec-13 17:29N 44°43' E 037°49'0 0.0
2017-Dec-13 16:59N 44°43' E 037°49'0 0.0
2017-Dec-13 16:29N 44°43' E 037°49'0 0.0
2017-Dec-13 15:59N 44°43' E 037°49'0 0.0
2017-Dec-13 15:29N 44°43' E 037°49'0 0.0
2017-Dec-13 14:59N 44°43' E 037°49'0 0.0
2017-Dec-13 14:29N 44°43' E 037°49'0 0.0
2017-Dec-13 13:59N 44°43' E 037°49'0 0.0
2017-Dec-13 13:26N 44°43' E 037°49'0 0.0
2017-Dec-13 12:59N 44°43' E 037°49'0 0.0
2017-Dec-13 12:29N 44°43' E 037°49'0 0.0
2017-Dec-13 11:59N 44°43' E 037°49'0 0.0
2017-Dec-13 11:29N 44°43' E 037°49'0 0.0
2017-Dec-13 10:59N 44°43' E 037°49'0 0.0
2017-Dec-13 10:29N 44°43' E 037°49'0 0.0
2017-Dec-13 09:59N 44°43' E 037°49'0 0.0
2017-Dec-13 09:29N 44°43' E 037°49'0 0.0
2017-Dec-13 08:59N 44°43' E 037°49'0 0.0
2017-Dec-13 08:29N 44°43' E 037°49'0 0.0
2017-Dec-13 07:59N 44°43' E 037°49'0 0.0
2017-Dec-13 07:29N 44°43' E 037°49'0 0.0
2017-Dec-13 06:59N 44°43' E 037°49'0 0.0
2017-Dec-13 06:29N 44°43' E 037°49'0 0.0
2017-Dec-13 05:59N 44°43' E 037°49'0 0.0
2017-Dec-13 05:29N 44°43' E 037°49'0 0.0
2017-Dec-13 04:59N 44°43' E 037°49'0 0.0
2017-Dec-13 04:29N 44°43' E 037°49'0 0.0
2017-Dec-13 03:59N 44°43' E 037°49'0 0.0
2017-Dec-13 03:29N 44°43' E 037°49'0 0.0
2017-Dec-13 02:59N 44°43' E 037°49'0 0.0
2017-Dec-13 02:29N 44°43' E 037°49'0 0.0
2017-Dec-13 01:59N 44°43' E 037°49'0 0.0
2017-Dec-13 01:29N 44°43' E 037°49'0 0.0
2017-Dec-13 00:56N 44°43' E 037°49'0 0.0
2017-Dec-13 00:29N 44°43' E 037°49'0 0.0
2017-Dec-12 23:59N 44°43' E 037°49'0 0.0
2017-Dec-12 23:29N 44°43' E 037°49'0 0.0
2017-Dec-12 22:59N 44°43' E 037°49'0 0.0
2017-Dec-12 22:29N 44°43' E 037°49'0 0.0
2017-Dec-12 21:59N 44°43' E 037°49'0 0.0
2017-Dec-12 21:29N 44°43' E 037°49'0 0.0
2017-Dec-12 20:59N 44°43' E 037°49'0 0.0
2017-Dec-12 20:29N 44°43' E 037°49'0 0.0
2017-Dec-12 19:59N 44°43' E 037°49'0 0.0
2017-Dec-12 19:29N 44°43' E 037°49'0 0.0
2017-Dec-12 18:59N 44°43' E 037°49'0 0.0
2017-Dec-12 18:29N 44°43' E 037°49'0 0.0
2017-Dec-12 17:59N 44°43' E 037°49'0 0.0
2017-Dec-12 17:29N 44°43' E 037°49'0 0.0
2017-Dec-12 16:59N 44°43' E 037°49'0 0.0
2017-Dec-12 16:29N 44°43' E 037°49'0 0.0
2017-Dec-12 15:59N 44°43' E 037°49'0 0.0
2017-Dec-12 15:29N 44°43' E 037°49'0 0.0
2017-Dec-12 14:59N 44°43' E 037°49'0 0.0
2017-Dec-12 14:29N 44°43' E 037°49'0 0.0
2017-Dec-12 13:59N 44°43' E 037°49'0 0.0
2017-Dec-12 13:29N 44°43' E 037°49'0 0.0
2017-Dec-12 12:59N 44°43' E 037°49'0 0.0
2017-Dec-12 12:29N 44°43' E 037°49'0 0.0
2017-Dec-12 11:59N 44°43' E 037°49'0 0.0
2017-Dec-12 11:29N 44°43' E 037°49'0 0.0
2017-Dec-12 10:59N 44°43' E 037°49'0 0.0
2017-Dec-12 10:29N 44°43' E 037°49'0 0.0
2017-Dec-12 09:59N 44°43' E 037°49'0 0.0
2017-Dec-12 09:29N 44°43' E 037°49'0 0.0
2017-Dec-12 08:59N 44°43' E 037°49'0 0.0
2017-Dec-12 08:29N 44°43' E 037°49'0 0.0
2017-Dec-12 07:59N 44°43' E 037°49'0 0.0
2017-Dec-12 07:29N 44°43' E 037°49'0 0.0
2017-Dec-12 06:59N 44°43' E 037°49'0 0.0
2017-Dec-12 06:29N 44°43' E 037°49'0 0.0
2017-Dec-12 05:59N 44°43' E 037°49'0 0.0
2017-Dec-12 05:29N 44°43' E 037°49'0 0.0
2017-Dec-12 04:59N 44°43' E 037°49'0 0.0
2017-Dec-12 04:29N 44°43' E 037°49'0 0.0
2017-Dec-12 03:59N 44°43' E 037°49'0 0.0
2017-Dec-12 03:29N 44°43' E 037°49'0 0.0
2017-Dec-12 02:59N 44°43' E 037°49'0 0.0
2017-Dec-12 02:29N 44°43' E 037°49'0 0.0
2017-Dec-12 01:59N 44°43' E 037°49'0 0.0
2017-Dec-12 01:29N 44°43' E 037°49'0 0.0
2017-Dec-12 00:59N 44°43' E 037°49'0 0.0
2017-Dec-12 00:29N 44°43' E 037°49'0 0.0
2017-Dec-11 23:59N 44°43' E 037°49'0 0.0
2017-Dec-11 23:29N 44°43' E 037°49'0 0.0
2017-Dec-11 22:59N 44°43' E 037°49'0 0.0
2017-Dec-11 22:29N 44°43' E 037°49'0 0.0
2017-Dec-11 21:59N 44°43' E 037°49'0 0.0
2017-Dec-11 21:29N 44°43' E 037°49'0 0.0
2017-Dec-11 20:59N 44°43' E 037°49'0 0.0
2017-Dec-11 20:29N 44°43' E 037°49'0 0.0
2017-Dec-11 19:59N 44°43' E 037°49'0 0.0
2017-Dec-11 19:29N 44°43' E 037°49'0 0.0
2017-Dec-11 18:59N 44°43' E 037°49'0 0.0
2017-Dec-11 18:29N 44°43' E 037°49'0 0.0
2017-Dec-11 17:59N 44°43' E 037°49'0 0.0
2017-Dec-11 17:29N 44°43' E 037°49'0 0.0
2017-Dec-11 16:59N 44°43' E 037°49'0 0.0
2017-Dec-11 16:29N 44°43' E 037°49'0 0.0
2017-Dec-11 15:59N 44°43' E 037°49'0 0.0
2017-Dec-11 15:29N 44°43' E 037°49'0 0.0
2017-Dec-11 14:59N 44°43' E 037°49'0 0.0
2017-Dec-11 14:29N 44°43' E 037°49'0 0.0
2017-Dec-11 13:59N 44°43' E 037°49'0 0.0
2017-Dec-11 13:29N 44°43' E 037°49'0 0.0
2017-Dec-11 12:59N 44°43' E 037°49'0 0.0
2017-Dec-11 12:29N 44°43' E 037°49'0 0.0
2017-Dec-11 11:59N 44°43' E 037°49'0 0.0
2017-Dec-11 11:29N 44°43' E 037°49'0 0.0
2017-Dec-11 10:59N 44°43' E 037°49'0 0.0
2017-Dec-11 10:29N 44°43' E 037°49'0 0.0
2017-Dec-11 09:59N 44°43' E 037°49'0 0.0
2017-Dec-11 09:29N 44°43' E 037°49'0 0.0
2017-Dec-11 08:59N 44°43' E 037°49'0 0.0
2017-Dec-11 08:29N 44°43' E 037°49'0 0.0
2017-Dec-11 07:59N 44°43' E 037°49'0 0.0
2017-Dec-11 07:29N 44°43' E 037°49'0 0.0
2017-Dec-11 06:59N 44°43' E 037°49'0 0.0
2017-Dec-11 06:29N 44°43' E 037°49'0 0.0
2017-Dec-11 05:59N 44°43' E 037°49'0 0.0
2017-Dec-11 05:29N 44°43' E 037°49'0 0.0
2017-Dec-11 04:59N 44°43' E 037°49'0 0.0
2017-Dec-11 04:29N 44°43' E 037°49'0 0.0
2017-Dec-11 03:59N 44°43' E 037°49'0 0.0
2017-Dec-11 03:29N 44°43' E 037°49'0 0.0
2017-Dec-11 02:59N 44°43' E 037°49'0 0.0
2017-Dec-11 02:29N 44°43' E 037°49'0 0.0
2017-Dec-11 01:59N 44°43' E 037°49'0 0.0
2017-Dec-11 01:29N 44°43' E 037°49'0 0.0
2017-Dec-11 00:59N 44°43' E 037°49'0 0.0
2017-Dec-11 00:29N 44°43' E 037°49'0 0.0
2017-Dec-10 23:59N 44°43' E 037°49'0 0.0
2017-Dec-10 23:29N 44°43' E 037°49'0 0.0
2017-Dec-10 22:59N 44°43' E 037°49'0 0.0
2017-Dec-10 22:29N 44°43' E 037°49'0 0.0
2017-Dec-10 21:59N 44°43' E 037°49'0 0.0
2017-Dec-10 21:29N 44°43' E 037°49'0 0.0
2017-Dec-10 20:59N 44°43' E 037°49'0 0.0
2017-Dec-10 20:11N 44°43' E 037°49'0 0.0
2017-Dec-10 19:59N 44°43' E 037°49'0 0.0
2017-Dec-10 19:29N 44°43' E 037°49'0 0.0
2017-Dec-10 18:59N 44°43' E 037°49'0 0.0
2017-Dec-10 18:29N 44°43' E 037°49'0 0.0
2017-Dec-10 17:59N 44°43' E 037°49'0 0.0
2017-Dec-10 17:29N 44°43' E 037°49'0 0.0
2017-Dec-10 16:59N 44°43' E 037°49'0 0.0
2017-Dec-10 16:29N 44°43' E 037°49'0 0.0
2017-Dec-10 15:59N 44°43' E 037°49'0 0.0
2017-Dec-10 15:29N 44°43' E 037°49'0 0.0
2017-Dec-10 14:59N 44°43' E 037°49'0 0.0
2017-Dec-10 14:29N 44°43' E 037°49'0 0.0
2017-Dec-10 13:59N 44°43' E 037°49'0 0.0
2017-Dec-10 13:29N 44°43' E 037°49'0 0.0
2017-Dec-10 12:59N 44°43' E 037°49'0 0.0
2017-Dec-10 12:29N 44°43' E 037°49'0 0.0
2017-Dec-10 11:59N 44°43' E 037°49'0 0.0
2017-Dec-10 11:29N 44°43' E 037°49'0 0.0
2017-Dec-10 10:59N 44°43' E 037°49'0 0.0
2017-Dec-10 10:29N 44°43' E 037°49'0 0.0
2017-Dec-10 09:59N 44°43' E 037°49'0 0.0
2017-Dec-10 09:29N 44°43' E 037°49'0 0.0
2017-Dec-10 08:59N 44°43' E 037°49'0 0.0
2017-Dec-10 08:29N 44°43' E 037°49'0 0.0
2017-Dec-10 07:59N 44°43' E 037°49'0 0.0
2017-Dec-10 07:29N 44°43' E 037°49'0 0.0
2017-Dec-10 06:56N 44°43' E 037°49'0 0.0
2017-Dec-10 06:29N 44°43' E 037°49'0 0.0
2017-Dec-10 05:59N 44°43' E 037°49'0 0.0
2017-Dec-10 05:29N 44°43' E 037°49'0 0.0
2017-Dec-10 04:59N 44°43' E 037°49'0 0.0
2017-Dec-10 04:29N 44°43' E 037°49'0 0.0
2017-Dec-10 03:59N 44°43' E 037°49'0 0.0
2017-Dec-10 03:29N 44°43' E 037°49'0 0.0
2017-Dec-10 02:59N 44°43' E 037°49'0 0.0
2017-Dec-10 02:29N 44°43' E 037°49'0 0.0
2017-Dec-10 01:59N 44°43' E 037°49'0 0.0
2017-Dec-10 01:29N 44°43' E 037°49'0 0.0
2017-Dec-10 00:59N 44°43' E 037°49'0 0.0
2017-Dec-10 00:29N 44°43' E 037°49'0 0.0
2017-Dec-09 23:59N 44°43' E 037°49'0 0.0
2017-Dec-09 23:29N 44°43' E 037°49'0 0.0
2017-Dec-09 22:59N 44°43' E 037°49'0 0.0
2017-Dec-09 22:29N 44°43' E 037°49'0 0.0
2017-Dec-09 21:23N 44°43' E 037°49'0 0.0
2017-Dec-09 20:59N 44°43' E 037°49'0 0.0
2017-Dec-09 20:29N 44°43' E 037°49'0 0.0
2017-Dec-09 19:59N 44°43' E 037°49'0 0.0
2017-Dec-09 19:28N 44°43' E 037°49'0 0.0
2017-Dec-09 18:58N 44°43' E 037°49'0 0.0
2017-Dec-09 18:28N 44°43' E 037°49'0 0.0
2017-Dec-09 17:58N 44°43' E 037°49'0 0.0
2017-Dec-09 17:28N 44°43' E 037°49'0 0.0
2017-Dec-09 16:58N 44°43' E 037°49'0 0.0
2017-Dec-09 16:28N 44°43' E 037°49'0 0.0
2017-Dec-09 15:58N 44°43' E 037°49'0 0.0
2017-Dec-09 15:28N 44°43' E 037°49'0 0.0
2017-Dec-09 14:58N 44°43' E 037°49'0 0.0
2017-Dec-09 14:28N 44°43' E 037°49'0 0.0
2017-Dec-09 13:58N 44°43' E 037°49'0 0.0
2017-Dec-09 13:25N 44°43' E 037°49'0 0.0
2017-Dec-09 12:58N 44°43' E 037°49'0 0.0
2017-Dec-09 12:28N 44°43' E 037°49'0 0.0
2017-Dec-09 11:58N 44°43' E 037°49'0 0.0
2017-Dec-09 11:28N 44°43' E 037°49'0 0.0
2017-Dec-09 10:58N 44°43' E 037°49'0 0.0
2017-Dec-09 10:28N 44°43' E 037°49'0 0.0
2017-Dec-09 09:58N 44°43' E 037°49'0 0.0
2017-Dec-09 09:28N 44°43' E 037°49'0 0.0
2017-Dec-09 08:58N 44°43' E 037°49'0 0.0
2017-Dec-09 08:28N 44°43' E 037°49'0 0.0
2017-Dec-09 07:58N 44°43' E 037°49'0 0.0
2017-Dec-09 07:28N 44°43' E 037°49'0 0.0
2017-Dec-09 06:58N 44°43' E 037°49'0 0.0
2017-Dec-09 06:28N 44°43' E 037°49'0 0.0
2017-Dec-09 05:58N 44°43' E 037°49'0 0.0
2017-Dec-09 05:28N 44°43' E 037°49'0 0.0
2017-Dec-09 04:58N 44°43' E 037°49'0 0.0
2017-Dec-09 04:28N 44°43' E 037°49'0 0.0
2017-Dec-09 03:58N 44°43' E 037°49'0 0.0
2017-Dec-09 03:28N 44°43' E 037°49'0 0.0
2017-Dec-09 02:58N 44°43' E 037°49'0 0.0
2017-Dec-09 02:25N 44°43' E 037°49'0 0.0
2017-Dec-09 01:58N 44°43' E 037°49'0 0.0
2017-Dec-09 01:28N 44°43' E 037°49'0 0.0
2017-Dec-09 00:58N 44°43' E 037°49'0 0.0
2017-Dec-09 00:28N 44°43' E 037°49'0 0.0
2017-Dec-08 23:58N 44°43' E 037°49'0 0.0
2017-Dec-08 23:28N 44°43' E 037°49'0 0.0
2017-Dec-08 22:58N 44°43' E 037°49'0 0.0
2017-Dec-08 22:28N 44°43' E 037°49'0 0.0
2017-Dec-08 21:58N 44°43' E 037°49'0 0.0
2017-Dec-08 21:28N 44°43' E 037°49'0 0.0
2017-Dec-08 20:58N 44°43' E 037°49'0 0.0
2017-Dec-08 20:28N 44°43' E 037°49'0 0.0
2017-Dec-08 19:58N 44°43' E 037°49'0 0.0
2017-Dec-08 19:28N 44°43' E 037°49'0 0.0
2017-Dec-08 18:58N 44°43' E 037°49'0 0.0
2017-Dec-08 18:28N 44°43' E 037°49'0 0.0
2017-Dec-08 17:58N 44°43' E 037°49'0 0.0
2017-Dec-08 17:28N 44°43' E 037°49'0 0.0
2017-Dec-08 16:52N 44°43' E 037°49'  

Dump ship's entire track history